createdAt,value
2017-03-14T00:00:04.726Z,-6
2017-03-14T00:01:04.705Z,-5.91
2017-03-14T00:02:04.889Z,-5.92
2017-03-14T00:03:04.867Z,-5.91
2017-03-14T00:04:04.647Z,-5.82
2017-03-14T00:05:04.611Z,-5.88
2017-03-14T00:06:04.585Z,-5.88
2017-03-14T00:07:04.564Z,-5.87
2017-03-14T00:08:04.550Z,-5.91
2017-03-14T00:09:04.540Z,-5.88
2017-03-14T00:10:04.517Z,-5.84
2017-03-14T00:11:04.496Z,-5.9
2017-03-14T00:12:04.469Z,-5.87
2017-03-14T00:13:04.426Z,-5.82
2017-03-14T00:14:04.415Z,-5.92
2017-03-14T00:15:04.402Z,-5.87
2017-03-14T00:16:04.368Z,-5.88
2017-03-14T00:17:04.358Z,-5.85
2017-03-14T00:18:04.342Z,-5.77
2017-03-14T00:19:04.304Z,-5.8
2017-03-14T00:20:04.281Z,-5.66
2017-03-14T00:21:04.273Z,-5.69
2017-03-14T00:22:04.239Z,-5.8
2017-03-14T00:23:04.218Z,-5.8
2017-03-14T00:24:04.191Z,-5.75
2017-03-14T00:25:04.175Z,-5.78
2017-03-14T00:26:04.145Z,-5.75
2017-03-14T00:27:04.160Z,-5.81
2017-03-14T00:28:04.104Z,-5.9
2017-03-14T00:29:04.096Z,-5.85
2017-03-14T00:30:04.062Z,-5.96
2017-03-14T00:31:04.050Z,-6
2017-03-14T00:32:04.002Z,-5.92
2017-03-14T00:33:04.008Z,-5.92
2017-03-14T00:34:03.987Z,-5.9
2017-03-14T00:35:03.945Z,-5.99
2017-03-14T00:36:03.913Z,-5.85
2017-03-14T00:37:03.911Z,-5.78
2017-03-14T00:38:03.899Z,-5.78
2017-03-14T00:39:03.866Z,-5.88
2017-03-14T00:40:03.843Z,-5.98
2017-03-14T00:41:03.823Z,-5.92
2017-03-14T00:42:03.798Z,-5.87
2017-03-14T00:43:03.771Z,-5.88
2017-03-14T00:44:03.741Z,-5.9
2017-03-14T00:45:03.731Z,-5.96
2017-03-14T00:46:03.710Z,-5.81
2017-03-14T00:47:03.693Z,-5.9
2017-03-14T00:48:03.665Z,-6.02
2017-03-14T00:49:03.649Z,-5.92
2017-03-14T00:50:03.605Z,-5.98
2017-03-14T00:51:03.594Z,-5.88
2017-03-14T00:52:03.581Z,-5.91
2017-03-14T00:53:03.561Z,-5.91
2017-03-14T00:54:03.540Z,-6.03
2017-03-14T00:55:03.506Z,-5.98
2017-03-14T00:56:03.494Z,-5.91
2017-03-14T00:57:03.462Z,-5.96
2017-03-14T00:58:03.426Z,-5.92
2017-03-14T00:59:03.402Z,-5.96
2017-03-14T01:00:03.382Z,-5.96
2017-03-14T01:01:03.382Z,-5.98
2017-03-14T01:02:03.358Z,-6.05
2017-03-14T01:03:03.333Z,-5.99
2017-03-14T01:04:03.312Z,-5.92
2017-03-14T01:05:03.270Z,-6
2017-03-14T01:06:03.258Z,-5.92
2017-03-14T01:07:02.840Z,-5.96
2017-03-14T01:08:03.220Z,-5.88
2017-03-14T01:09:03.192Z,-5.85
2017-03-14T01:10:03.151Z,-5.85
2017-03-14T01:11:02.759Z,-5.9
2017-03-14T01:12:03.128Z,-5.9
2017-03-14T01:13:03.101Z,-5.8
2017-03-14T01:14:02.687Z,-5.84
2017-03-14T01:15:02.662Z,-5.8
2017-03-14T01:16:03.040Z,-5.99
2017-03-14T01:17:02.622Z,-5.9
2017-03-14T01:18:02.989Z,-5.84
2017-03-14T01:19:02.965Z,-5.9
2017-03-14T01:20:02.940Z,-5.92
2017-03-14T01:21:02.914Z,-5.91
2017-03-14T01:22:02.896Z,-5.81
2017-03-14T01:23:02.873Z,-5.8
2017-03-14T01:24:02.834Z,-5.91
2017-03-14T01:25:02.830Z,-5.85
2017-03-14T01:26:02.810Z,-5.9
2017-03-14T01:27:02.784Z,-5.92
2017-03-14T01:28:02.385Z,-5.88
2017-03-14T01:29:02.749Z,-5.88
2017-03-14T01:30:02.717Z,-6.03
2017-03-14T01:31:02.710Z,-5.91
2017-03-14T01:32:02.664Z,-5.95
2017-03-14T01:33:02.660Z,-5.87
2017-03-14T01:34:02.635Z,-5.95
2017-03-14T01:35:02.621Z,-5.92
2017-03-14T01:36:02.199Z,-5.85
2017-03-14T01:37:02.578Z,-5.98
2017-03-14T01:38:02.534Z,-5.92
2017-03-14T01:39:02.531Z,-5.99
2017-03-14T01:40:02.501Z,-6.03
2017-03-14T01:41:02.492Z,-6.02
2017-03-14T01:42:02.440Z,-6
2017-03-14T01:43:02.425Z,-6.13
2017-03-14T01:44:02.395Z,-5.95
2017-03-14T01:45:02.383Z,-6
2017-03-14T01:46:02.357Z,-6
2017-03-14T01:47:02.388Z,-6.06
2017-03-14T01:48:02.322Z,-5.99
2017-03-14T01:49:02.291Z,-5.98
2017-03-14T01:50:02.279Z,-6
2017-03-14T01:51:02.257Z,-6.05
2017-03-14T01:52:01.845Z,-6.08
2017-03-14T01:53:02.222Z,-6.1
2017-03-14T01:54:02.178Z,-6.09
2017-03-14T01:55:02.178Z,-6.24
2017-03-14T01:56:02.149Z,-6.2
2017-03-14T01:57:02.123Z,-6.26
2017-03-14T01:58:02.081Z,-6.14
2017-03-14T01:59:02.085Z,-6.13
2017-03-14T02:00:02.055Z,-6.1
2017-03-14T02:01:02.031Z,-6.05
2017-03-14T02:02:02.004Z,-6.03
2017-03-14T02:03:01.989Z,-6.19
2017-03-14T02:04:01.967Z,-6.08
2017-03-14T02:05:01.947Z,-6.13
2017-03-14T02:06:01.922Z,-6.05
2017-03-14T02:07:01.516Z,-6.1
2017-03-14T02:08:01.882Z,-6.06
2017-03-14T02:09:01.839Z,-6.08
2017-03-14T02:10:01.815Z,-6.05
2017-03-14T02:11:01.810Z,-6.03
2017-03-14T02:12:01.799Z,-6.08
2017-03-14T02:13:01.774Z,-6.06
2017-03-14T02:14:01.755Z,-6.02
2017-03-14T02:15:01.717Z,-6.09
2017-03-14T02:16:01.710Z,-6.02
2017-03-14T02:17:01.667Z,-5.99
2017-03-14T02:18:01.691Z,-6.08
2017-03-14T02:19:01.641Z,-6
2017-03-14T02:20:01.609Z,-6.03
2017-03-14T02:21:01.598Z,-6
2017-03-14T02:22:01.551Z,-6.05
2017-03-14T02:23:01.530Z,-6.02
2017-03-14T02:24:01.527Z,-5.99
2017-03-14T02:25:01.098Z,-6.06
2017-03-14T02:26:01.487Z,-5.98
2017-03-14T02:27:01.466Z,-6.02
2017-03-14T02:28:01.443Z,-6
2017-03-14T02:29:01.417Z,-5.96
2017-03-14T02:30:01.386Z,-5.88
2017-03-14T02:31:01.358Z,-6.06
2017-03-14T02:32:01.328Z,-6.03
2017-03-14T02:33:01.325Z,-5.95
2017-03-14T02:34:00.918Z,-6.06
2017-03-14T02:35:00.873Z,-5.95
2017-03-14T02:36:01.266Z,-5.96
2017-03-14T02:37:00.842Z,-6.03
2017-03-14T02:38:01.217Z,-5.95
2017-03-14T02:39:00.800Z,-6.03
2017-03-14T02:40:01.165Z,-6.02
2017-03-14T02:41:01.140Z,-5.99
2017-03-14T02:42:00.731Z,-6.02
2017-03-14T02:43:01.089Z,-6
2017-03-14T02:44:01.080Z,-6.09
2017-03-14T02:45:01.057Z,-6
2017-03-14T02:46:01.063Z,-6
2017-03-14T02:47:00.626Z,-6.06
2017-03-14T02:48:00.966Z,-6
2017-03-14T02:49:00.955Z,-6.08
2017-03-14T02:50:00.553Z,-5.96
2017-03-14T02:51:00.513Z,-6.06
2017-03-14T02:52:00.886Z,-6.02
2017-03-14T02:53:00.484Z,-6.14
2017-03-14T02:54:00.844Z,-6
2017-03-14T02:55:00.831Z,-5.98
2017-03-14T02:56:00.803Z,-6.03
2017-03-14T02:57:00.780Z,-6.02
2017-03-14T02:58:00.767Z,-6.06
2017-03-14T02:59:00.721Z,-6.09
2017-03-14T03:00:00.701Z,-6.08
2017-03-14T03:01:00.696Z,-5.95
2017-03-14T03:02:00.698Z,-6.03
2017-03-14T03:03:00.640Z,-6.06
2017-03-14T03:04:00.623Z,-6.08
2017-03-14T03:05:00.590Z,-6.1
2017-03-14T03:06:00.584Z,-6.09
2017-03-14T03:07:00.160Z,-5.96
2017-03-14T03:08:00.527Z,-6.09
2017-03-14T03:09:00.527Z,-5.92
2017-03-14T03:10:00.497Z,-5.98
2017-03-14T03:11:00.468Z,-5.98
2017-03-14T03:12:00.462Z,-5.99
2017-03-14T03:13:00.405Z,-6.1
2017-03-14T03:14:00.407Z,-6.06
2017-03-14T03:15:00.384Z,-6.06
2017-03-14T03:16:00.337Z,-6.09
2017-03-14T03:17:00.327Z,-6.03
2017-03-14T03:18:00.307Z,-5.98
2017-03-14T03:19:00.283Z,-6.03
2017-03-14T03:20:00.260Z,-6.09
2017-03-14T03:20:59.846Z,-6.13
2017-03-14T03:21:59.442Z,-6.1
2017-03-14T03:23:00.209Z,-6.08
2017-03-14T03:24:00.163Z,-6.03
2017-03-14T03:25:00.145Z,-6
2017-03-14T03:26:00.123Z,-6.05
2017-03-14T03:27:00.117Z,-6.09
2017-03-14T03:28:00.082Z,-6.13
2017-03-14T03:28:59.666Z,-6.05
2017-03-14T03:30:00.037Z,-6
2017-03-14T03:31:00.015Z,-6.02
2017-03-14T03:31:59.980Z,-6.09
2017-03-14T03:32:59.978Z,-6.17
2017-03-14T03:33:59.950Z,-6.03
2017-03-14T03:34:59.923Z,-6.1
2017-03-14T03:35:59.915Z,-6.17
2017-03-14T03:36:59.872Z,-6.09
2017-03-14T03:37:59.873Z,-6.2
2017-03-14T03:38:59.461Z,-6.08
2017-03-14T03:39:59.428Z,-6.27
2017-03-14T03:40:59.804Z,-6.26
2017-03-14T03:41:59.769Z,-6.24
2017-03-14T03:42:59.744Z,-6.29
2017-03-14T03:43:59.719Z,-6.39
2017-03-14T03:44:59.694Z,-6.37
2017-03-14T03:45:59.676Z,-6.31
2017-03-14T03:46:59.649Z,-6.31
2017-03-14T03:47:59.635Z,-6.34
2017-03-14T03:48:59.624Z,-6.27
2017-03-14T03:49:59.579Z,-6.42
2017-03-14T03:50:59.575Z,-6.26
2017-03-14T03:51:59.546Z,-6.29
2017-03-14T03:52:59.530Z,-6.35
2017-03-14T03:53:59.504Z,-6.35
2017-03-14T03:54:59.526Z,-6.41
2017-03-14T03:55:59.063Z,-6.42
2017-03-14T03:56:59.040Z,-6.41
2017-03-14T03:57:59.416Z,-6.38
2017-03-14T03:58:59.402Z,-6.42
2017-03-14T03:59:59.378Z,-6.52
2017-03-14T04:00:59.343Z,-6.56
2017-03-14T04:01:59.315Z,-6.52
2017-03-14T04:02:59.297Z,-6.55
2017-03-14T04:03:59.277Z,-6.56
2017-03-14T04:04:59.249Z,-6.47
2017-03-14T04:05:59.215Z,-6.52
2017-03-14T04:06:59.212Z,-6.48
2017-03-14T04:07:59.185Z,-6.52
2017-03-14T04:08:59.157Z,-6.53
2017-03-14T04:09:59.133Z,-6.35
2017-03-14T04:10:59.132Z,-6.38
2017-03-14T04:11:59.101Z,-6.37
2017-03-14T04:12:59.081Z,-6.42
2017-03-14T04:13:59.043Z,-6.35
2017-03-14T04:14:58.650Z,-6.44
2017-03-14T04:15:58.997Z,-6.44
2017-03-14T04:16:58.989Z,-6.44
2017-03-14T04:17:58.571Z,-6.53
2017-03-14T04:18:58.552Z,-6.45
2017-03-14T04:19:58.533Z,-6.53
2017-03-14T04:20:58.510Z,-6.32
2017-03-14T04:21:58.870Z,-6.44
2017-03-14T04:22:58.465Z,-6.42
2017-03-14T04:23:58.848Z,-6.45
2017-03-14T04:24:58.419Z,-6.52
2017-03-14T04:25:58.773Z,-6.41
2017-03-14T04:26:58.758Z,-6.59
2017-03-14T04:27:58.347Z,-6.55
2017-03-14T04:28:58.338Z,-6.55
2017-03-14T04:29:58.691Z,-6.53
2017-03-14T04:30:58.669Z,-6.53
2017-03-14T04:31:58.644Z,-6.52
2017-03-14T04:32:58.621Z,-6.52
2017-03-14T04:33:58.592Z,-6.56
2017-03-14T04:34:58.611Z,-6.56
2017-03-14T04:35:58.548Z,-6.48
2017-03-14T04:36:58.522Z,-6.52
2017-03-14T04:37:58.541Z,-6.52
2017-03-14T04:38:58.096Z,-6.52
2017-03-14T04:39:58.473Z,-6.6
2017-03-14T04:40:58.434Z,-6.6
2017-03-14T04:41:58.417Z,-6.53
2017-03-14T04:42:58.403Z,-6.64
2017-03-14T04:43:58.387Z,-6.69
2017-03-14T04:44:58.355Z,-6.79
2017-03-14T04:45:58.343Z,-6.72
2017-03-14T04:46:58.305Z,-6.71
2017-03-14T04:47:57.899Z,-6.71
2017-03-14T04:48:58.276Z,-6.67
2017-03-14T04:49:58.238Z,-6.74
2017-03-14T04:50:58.216Z,-6.67
2017-03-14T04:51:58.196Z,-6.72
2017-03-14T04:52:58.187Z,-6.66
2017-03-14T04:53:57.763Z,-6.67
2017-03-14T04:54:58.134Z,-6.74
2017-03-14T04:55:57.718Z,-6.75
2017-03-14T04:56:57.699Z,-6.87
2017-03-14T04:57:57.680Z,-6.85
2017-03-14T04:58:57.647Z,-6.93
2017-03-14T04:59:58.024Z,-6.82
2017-03-14T05:00:58.005Z,-6.87
2017-03-14T05:01:57.967Z,-6.85
2017-03-14T05:02:57.567Z,-6.98
2017-03-14T05:03:57.920Z,-6.84
2017-03-14T05:04:57.891Z,-6.89
2017-03-14T05:05:57.104Z,-6.95
2017-03-14T05:06:57.852Z,-7
2017-03-14T05:07:57.837Z,-6.9
2017-03-14T05:08:57.802Z,-6.93
2017-03-14T05:09:57.791Z,-6.93
2017-03-14T05:10:57.754Z,-6.99
2017-03-14T05:11:57.721Z,-6.92
2017-03-14T05:12:57.709Z,-7.03
2017-03-14T05:13:57.691Z,-6.93
2017-03-14T05:14:57.297Z,-6.96
2017-03-14T05:15:57.654Z,-6.96
2017-03-14T05:16:57.670Z,-6.93
2017-03-14T05:17:57.613Z,-6.96
2017-03-14T05:18:57.194Z,-6.95
2017-03-14T05:19:57.171Z,-6.95
2017-03-14T05:20:57.139Z,-6.95
2017-03-14T05:21:57.501Z,-6.93
2017-03-14T05:22:57.509Z,-7.05
2017-03-14T05:23:57.083Z,-6.93
2017-03-14T05:24:57.441Z,-6.99
2017-03-14T05:25:57.420Z,-6.96
2017-03-14T05:26:57.399Z,-6.95
2017-03-14T05:27:57.387Z,-7.08
2017-03-14T05:28:57.344Z,-7.27
2017-03-14T05:29:57.324Z,-7.16
2017-03-14T05:30:57.322Z,-7.28
2017-03-14T05:31:57.297Z,-7.18
2017-03-14T05:32:57.266Z,-7.18
2017-03-14T05:33:57.244Z,-7.24
2017-03-14T05:34:57.220Z,-7.23
2017-03-14T05:35:57.205Z,-7.24
2017-03-14T05:36:57.164Z,-7.2
2017-03-14T05:37:56.768Z,-7.34
2017-03-14T05:38:57.139Z,-7.28
2017-03-14T05:39:57.136Z,-7.16
2017-03-14T05:40:57.089Z,-7.08
2017-03-14T05:41:57.071Z,-7.29
2017-03-14T05:42:57.059Z,-7.18
2017-03-14T05:43:57.014Z,-7.21
2017-03-14T05:44:57.007Z,-7.05
2017-03-14T05:45:57.003Z,-6.87
2017-03-14T05:46:56.591Z,-6.82
2017-03-14T05:47:56.946Z,-6.9
2017-03-14T05:48:56.913Z,-6.82
2017-03-14T05:49:56.912Z,-6.82
2017-03-14T05:50:56.893Z,-6.84
2017-03-14T05:51:56.843Z,-6.75
2017-03-14T05:52:56.837Z,-6.84
2017-03-14T05:53:56.797Z,-6.84
2017-03-14T05:54:56.791Z,-6.72
2017-03-14T05:55:56.780Z,-6.72
2017-03-14T05:56:56.780Z,-6.6
2017-03-14T05:57:56.352Z,-6.66
2017-03-14T05:58:56.696Z,-6.78
2017-03-14T05:59:56.667Z,-6.78
2017-03-14T06:00:56.663Z,-6.82
2017-03-14T06:01:56.649Z,-6.78
2017-03-14T06:02:56.602Z,-6.84
2017-03-14T06:03:56.595Z,-6.9
2017-03-14T06:04:56.567Z,-6.74
2017-03-14T06:05:56.550Z,-6.74
2017-03-14T06:06:56.145Z,-6.77
2017-03-14T06:07:56.503Z,-6.59
2017-03-14T06:08:56.110Z,-6.56
2017-03-14T06:09:56.475Z,-6.63
2017-03-14T06:10:56.459Z,-6.6
2017-03-14T06:11:56.413Z,-6.48
2017-03-14T06:12:56.416Z,-6.37
2017-03-14T06:13:56.383Z,-6.44
2017-03-14T06:14:56.367Z,-6.52
2017-03-14T06:15:56.354Z,-6.41
2017-03-14T06:16:56.329Z,-6.31
2017-03-14T06:17:56.289Z,-6.44
2017-03-14T06:18:56.289Z,-6.41
2017-03-14T06:19:56.261Z,-6.29
2017-03-14T06:20:56.253Z,-6.09
2017-03-14T06:21:56.228Z,-6.05
2017-03-14T06:22:56.176Z,-5.81
2017-03-14T06:23:56.181Z,-5.84
2017-03-14T06:24:55.377Z,-6.02
2017-03-14T06:25:56.131Z,-5.85
2017-03-14T06:26:56.114Z,-5.85
2017-03-14T06:27:56.086Z,-5.88
2017-03-14T06:28:56.059Z,-5.75
2017-03-14T06:29:56.060Z,-5.75
2017-03-14T06:30:56.031Z,-5.78
2017-03-14T06:31:56.015Z,-5.81
2017-03-14T06:32:56.006Z,-5.8
2017-03-14T06:33:55.979Z,-5.95
2017-03-14T06:34:55.951Z,-5.62
2017-03-14T06:35:55.919Z,-5.43
2017-03-14T06:36:55.896Z,-5.05
2017-03-14T06:37:55.512Z,-4.59
2017-03-14T06:38:55.869Z,-4.02
2017-03-14T06:39:55.844Z,-4.09
2017-03-14T06:40:55.823Z,-4.45
2017-03-14T06:41:55.796Z,-4.1
2017-03-14T06:42:55.780Z,-3.97
2017-03-14T06:43:55.762Z,-3.49
2017-03-14T06:44:55.373Z,-3.37
2017-03-14T06:45:55.717Z,-3.37
2017-03-14T06:46:55.714Z,-3.37
2017-03-14T06:47:55.688Z,-3.46
2017-03-14T06:48:55.663Z,-3.77
2017-03-14T06:49:55.261Z,-3.76
2017-03-14T06:50:55.642Z,-3.76
2017-03-14T06:51:55.629Z,-3.72
2017-03-14T06:52:55.592Z,-3.7
2017-03-14T06:53:55.590Z,-3.77
2017-03-14T06:54:55.553Z,-3.25
2017-03-14T06:55:55.540Z,-2.93
2017-03-14T06:56:55.520Z,-2.32
2017-03-14T06:57:55.513Z,-2.01
2017-03-14T06:58:55.495Z,-1.77
2017-03-14T06:59:55.479Z,-1.83
2017-03-14T07:00:55.462Z,-1.65
2017-03-14T07:01:55.444Z,-1.31
2017-03-14T07:02:55.026Z,-1.21
2017-03-14T07:03:55.378Z,-1.36
2017-03-14T07:04:55.372Z,-1.8
2017-03-14T07:05:55.363Z,-1.82
2017-03-14T07:06:55.342Z,-1.32
2017-03-14T07:07:55.321Z,-0.89
2017-03-14T07:08:55.306Z,-0.58
2017-03-14T07:09:55.316Z,-0.14
2017-03-14T07:10:55.275Z,-0.09
2017-03-14T07:11:55.259Z,0.1
2017-03-14T07:12:55.253Z,-0.03
2017-03-14T07:13:55.229Z,-0.17
2017-03-14T07:14:55.208Z,0.28
2017-03-14T07:15:55.195Z,0.35
2017-03-14T07:16:55.184Z,0.37
2017-03-14T07:17:54.770Z,0.37
2017-03-14T07:18:54.760Z,0.49
2017-03-14T07:19:55.116Z,0.49
2017-03-14T07:20:55.115Z,0.49
2017-03-14T07:21:55.085Z,0.51
2017-03-14T07:22:55.086Z,0.64
2017-03-14T07:23:55.073Z,0.59
2017-03-14T07:24:54.670Z,0.86
2017-03-14T07:25:55.022Z,0.77
2017-03-14T07:26:54.646Z,0.8
2017-03-14T07:27:54.610Z,0.9
2017-03-14T07:28:54.606Z,0.77
2017-03-14T07:29:54.587Z,0.62
2017-03-14T07:30:54.967Z,0.88
2017-03-14T07:31:54.941Z,1.21
2017-03-14T07:32:54.931Z,1.2
2017-03-14T07:33:54.910Z,1.21
2017-03-14T07:34:54.899Z,1.24
2017-03-14T07:35:54.910Z,0.95
2017-03-14T07:36:54.861Z,0.9
2017-03-14T07:37:54.848Z,0.86
2017-03-14T07:38:54.853Z,0.99
2017-03-14T07:39:54.440Z,0.77
2017-03-14T07:40:54.822Z,0.48
2017-03-14T07:41:54.794Z,0.08
2017-03-14T07:42:54.787Z,-0.3
2017-03-14T07:43:54.767Z,-0.35
2017-03-14T07:44:54.760Z,-0.06
2017-03-14T07:45:54.738Z,0.3
2017-03-14T07:46:54.722Z,0.19
2017-03-14T07:47:54.689Z,0.25
2017-03-14T07:48:54.693Z,0.38
2017-03-14T07:49:54.674Z,0.41
2017-03-14T07:50:54.664Z,0.26
2017-03-14T07:51:54.636Z,-0.17
2017-03-14T07:52:54.238Z,0.12
2017-03-14T07:53:54.230Z,0.17
2017-03-14T07:54:54.585Z,0.19
2017-03-14T07:55:54.573Z,0.19
2017-03-14T07:56:54.571Z,0.49
2017-03-14T07:57:54.548Z,0.59
2017-03-14T07:58:54.524Z,0.8
2017-03-14T07:59:54.514Z,0.68
2017-03-14T08:00:54.109Z,0.77
2017-03-14T08:01:54.478Z,0.89
2017-03-14T08:02:54.449Z,0.9
2017-03-14T08:03:54.461Z,0.51
2017-03-14T08:04:54.452Z,0.07
2017-03-14T08:05:54.424Z,0.3
2017-03-14T08:06:54.404Z,-0.3
2017-03-14T08:07:54.009Z,-0.39
2017-03-14T08:08:54.368Z,-0.16
2017-03-14T08:09:54.344Z,-0.39
2017-03-14T08:10:54.319Z,-0.38
2017-03-14T08:11:54.308Z,-0.6
2017-03-14T08:12:54.315Z,-0.77
2017-03-14T08:13:54.277Z,-0.62
2017-03-14T08:14:54.291Z,-0.73
2017-03-14T08:15:54.268Z,-0.59
2017-03-14T08:16:54.227Z,-0.37
2017-03-14T08:17:54.229Z,-0.13
2017-03-14T08:18:54.213Z,-0.45
2017-03-14T08:19:53.797Z,-0.49
2017-03-14T08:20:54.168Z,-0.63
2017-03-14T08:21:54.154Z,-0.65
2017-03-14T08:22:54.123Z,-0.13
2017-03-14T08:23:54.104Z,-0.13
2017-03-14T08:24:54.114Z,-0.34
2017-03-14T08:25:54.083Z,0.31
2017-03-14T08:26:54.078Z,0.6
2017-03-14T08:27:54.048Z,1.04
2017-03-14T08:28:54.046Z,1.38
2017-03-14T08:29:54.021Z,1.88
2017-03-14T08:30:54.012Z,2.22
2017-03-14T08:31:53.993Z,2.38
2017-03-14T08:32:53.978Z,2.12
2017-03-14T08:33:53.564Z,2.5
2017-03-14T08:34:53.949Z,2.77
2017-03-14T08:35:53.925Z,2.66
2017-03-14T08:36:53.527Z,2.59
2017-03-14T08:37:53.496Z,2.81
2017-03-14T08:38:53.874Z,2.95
2017-03-14T08:39:53.863Z,2.53
2017-03-14T08:40:53.447Z,2.62
2017-03-14T08:41:53.459Z,2.61
2017-03-14T08:42:53.435Z,2.79
2017-03-14T08:43:53.416Z,2.56
2017-03-14T08:44:53.401Z,2.63
2017-03-14T08:45:53.787Z,2.89
2017-03-14T08:46:53.360Z,3.13
2017-03-14T08:47:53.366Z,3.1
2017-03-14T08:48:53.745Z,2.59
2017-03-14T08:49:53.718Z,2.05
2017-03-14T08:50:53.716Z,2.02
2017-03-14T08:51:53.678Z,1.64
2017-03-14T08:52:53.664Z,1.25
2017-03-14T08:53:53.664Z,1.56
2017-03-14T08:54:53.640Z,1.28
2017-03-14T08:55:53.253Z,1.61
2017-03-14T08:56:53.619Z,0.92
2017-03-14T08:57:53.602Z,1.38
2017-03-14T08:58:53.585Z,1.25
2017-03-14T08:59:53.583Z,1.24
2017-03-14T09:00:53.550Z,1.38
2017-03-14T09:01:53.558Z,1.57
2017-03-14T09:02:53.515Z,1.89
2017-03-14T09:03:53.503Z,2.2
2017-03-14T09:04:53.503Z,2.4
2017-03-14T09:05:53.499Z,2.53
2017-03-14T09:06:53.086Z,2.79
2017-03-14T09:07:53.463Z,3.42
2017-03-14T09:08:53.442Z,3.8
2017-03-14T09:09:53.419Z,3.82
2017-03-14T09:10:53.424Z,4.08
2017-03-14T09:11:53.403Z,4.21
2017-03-14T09:12:53.389Z,4.29
2017-03-14T09:13:53.384Z,4.49
2017-03-14T09:14:53.353Z,4.31
2017-03-14T09:15:53.355Z,4.38
2017-03-14T09:16:53.329Z,4.62
2017-03-14T09:17:53.325Z,4.68
2017-03-14T09:18:53.314Z,4.38
2017-03-14T09:19:53.327Z,4.68
2017-03-14T09:20:53.288Z,4.86
2017-03-14T09:21:52.895Z,4.75
2017-03-14T09:22:53.276Z,5.02
2017-03-14T09:23:53.288Z,5.12
2017-03-14T09:24:53.235Z,5.15
2017-03-14T09:25:53.231Z,5.19
2017-03-14T09:26:53.207Z,5.06
2017-03-14T09:27:53.195Z,5.04
2017-03-14T09:28:53.186Z,5.27
2017-03-14T09:29:53.171Z,4.79
2017-03-14T09:30:53.162Z,4.42
2017-03-14T09:31:53.141Z,4.28
2017-03-14T09:32:53.143Z,4.25
2017-03-14T09:33:53.128Z,4.29
2017-03-14T09:34:53.126Z,4.16
2017-03-14T09:35:53.095Z,4.06
2017-03-14T09:36:53.104Z,3.7
2017-03-14T09:37:53.095Z,3.82
2017-03-14T09:38:53.081Z,3.57
2017-03-14T09:39:53.053Z,3.23
2017-03-14T09:40:53.032Z,3.57
2017-03-14T09:41:53.038Z,3.64
2017-03-14T09:42:53.020Z,3.88
2017-03-14T09:43:53.016Z,3.68
2017-03-14T09:44:52.980Z,4.07
2017-03-14T09:45:52.977Z,4.14
2017-03-14T09:46:52.587Z,4.21
2017-03-14T09:47:52.569Z,4.32
2017-03-14T09:48:52.947Z,4.26
2017-03-14T09:49:52.938Z,4.28
2017-03-14T09:50:52.940Z,4.16
2017-03-14T09:51:52.919Z,4.17
2017-03-14T09:52:52.895Z,3.95
2017-03-14T09:53:52.891Z,4.04
2017-03-14T09:54:52.874Z,4.07
2017-03-14T09:55:52.873Z,3.81
2017-03-14T09:56:52.467Z,3.68
2017-03-14T09:57:52.453Z,3.13
2017-03-14T09:58:52.817Z,2.53
2017-03-14T09:59:52.824Z,1.6
2017-03-14T10:00:52.430Z,2.15
2017-03-14T10:01:52.778Z,2.45
2017-03-14T10:02:52.776Z,2.94
2017-03-14T10:03:52.764Z,3.33
2017-03-14T10:04:52.377Z,3.64
2017-03-14T10:05:52.348Z,3.39
2017-03-14T10:06:52.348Z,3.1
2017-03-14T10:07:52.336Z,3.33
2017-03-14T10:08:52.315Z,3.96
2017-03-14T10:09:52.698Z,4.13
2017-03-14T10:10:52.302Z,3.26
2017-03-14T10:11:52.283Z,3.07
2017-03-14T10:12:52.276Z,2.92
2017-03-14T10:13:52.657Z,3.17
2017-03-14T10:14:52.626Z,3.41
2017-03-14T10:15:52.631Z,2.92
2017-03-14T10:16:52.607Z,2.99
2017-03-14T10:17:52.577Z,2.9
2017-03-14T10:18:52.581Z,2.74
2017-03-14T10:19:52.583Z,2.8
2017-03-14T10:20:52.558Z,2.89
2017-03-14T10:21:52.550Z,3.02
2017-03-14T10:22:52.371Z,3.22
2017-03-14T10:23:52.345Z,3.35
2017-03-14T10:24:52.334Z,3.39
2017-03-14T10:25:52.316Z,3.86
2017-03-14T10:26:52.318Z,3.92
2017-03-14T10:27:52.292Z,3.98
2017-03-14T10:28:52.273Z,4.11
2017-03-14T10:29:52.257Z,4.28
2017-03-14T10:30:52.263Z,4.28
2017-03-14T10:31:52.248Z,4.51
2017-03-14T10:32:52.224Z,4.83
2017-03-14T10:33:52.211Z,4.67
2017-03-14T10:34:51.899Z,4.83
2017-03-14T10:35:52.192Z,4.61
2017-03-14T10:36:52.182Z,4.26
2017-03-14T10:37:51.556Z,3.33
2017-03-14T10:38:51.828Z,3.37
2017-03-14T10:39:52.128Z,3.39
2017-03-14T10:40:52.131Z,3.22
2017-03-14T10:41:52.093Z,3.37
2017-03-14T10:42:52.097Z,3.84
2017-03-14T10:43:52.082Z,3.98
2017-03-14T10:44:52.054Z,3.93
2017-03-14T10:45:52.045Z,3.9
2017-03-14T10:46:52.020Z,4.14
2017-03-14T10:47:52.018Z,4.39
2017-03-14T10:48:52.010Z,4.53
2017-03-14T10:49:51.998Z,4.74
2017-03-14T10:50:51.980Z,4.26
2017-03-14T10:51:51.968Z,4.36
2017-03-14T10:52:51.963Z,4.21
2017-03-14T10:53:51.939Z,3.78
2017-03-14T10:54:51.928Z,3.92
2017-03-14T10:55:51.906Z,3.7
2017-03-14T10:56:51.914Z,3.49
2017-03-14T10:57:51.597Z,3.12
2017-03-14T10:58:51.270Z,2.81
2017-03-14T10:59:51.568Z,2.27
2017-03-14T11:00:51.857Z,2.84
2017-03-14T11:01:51.528Z,3.16
2017-03-14T11:02:51.817Z,3.15
2017-03-14T11:03:51.498Z,2.9
2017-03-14T11:04:51.483Z,2.92
2017-03-14T11:05:51.458Z,2.98
2017-03-14T11:06:51.462Z,3.23
2017-03-14T11:07:51.454Z,3.2
2017-03-14T11:08:51.434Z,3.07
2017-03-14T11:09:51.727Z,3.67
2017-03-14T11:10:51.413Z,4.21
2017-03-14T11:11:51.392Z,4.14
2017-03-14T11:12:51.372Z,4.08
2017-03-14T11:13:51.368Z,4.29
2017-03-14T11:14:51.355Z,4.53
2017-03-14T11:15:51.332Z,3.82
2017-03-14T11:16:51.322Z,3.6
2017-03-14T11:17:51.596Z,3.88
2017-03-14T11:18:51.582Z,3.88
2017-03-14T11:19:51.285Z,4.16
2017-03-14T11:20:51.551Z,4.18
2017-03-14T11:21:51.245Z,4.07
2017-03-14T11:22:51.543Z,3.99
2017-03-14T11:23:51.530Z,3.68
2017-03-14T11:24:51.494Z,4.21
2017-03-14T11:25:51.502Z,4.31
2017-03-14T11:26:51.482Z,4.51
2017-03-14T11:27:51.478Z,3.81
2017-03-14T11:28:51.460Z,3.92
2017-03-14T11:29:51.446Z,4.08
2017-03-14T11:30:51.422Z,3.68
2017-03-14T11:31:51.420Z,3.17
2017-03-14T11:32:51.404Z,2.77
2017-03-14T11:33:51.376Z,1.88
2017-03-14T11:34:51.371Z,1.61
2017-03-14T11:35:51.356Z,1.34
2017-03-14T11:36:51.354Z,1.17
2017-03-14T11:37:51.312Z,1.17
2017-03-14T11:38:51.324Z,1.13
2017-03-14T11:39:51.313Z,1.44
2017-03-14T11:40:51.282Z,1.24
2017-03-14T11:41:51.255Z,1.43
2017-03-14T11:42:51.249Z,0.84
2017-03-14T11:43:51.232Z,0.33
2017-03-14T11:44:51.222Z,0.4
2017-03-14T11:45:51.206Z,-0.08
2017-03-14T11:46:51.187Z,-0.16
2017-03-14T11:47:51.163Z,-0.35
2017-03-14T11:48:50.846Z,-0.49
2017-03-14T11:49:51.144Z,-0.77
2017-03-14T11:50:51.115Z,-0.9
2017-03-14T11:51:51.112Z,-0.19
2017-03-14T11:52:51.094Z,-0.53
2017-03-14T11:53:51.054Z,-0.52
2017-03-14T11:54:50.451Z,-0.5
2017-03-14T11:55:51.018Z,-0.62
2017-03-14T11:56:51.014Z,-0.93
2017-03-14T11:57:50.992Z,-0.42
2017-03-14T11:58:50.969Z,-0.45
2017-03-14T11:59:50.662Z,-0.31
2017-03-14T12:00:50.945Z,0.16
2017-03-14T12:01:50.617Z,0.13
2017-03-14T12:02:50.302Z,0.77
2017-03-14T12:03:50.283Z,0.74
2017-03-14T12:04:50.264Z,-0.21
2017-03-14T12:05:50.249Z,-0.14
2017-03-14T12:06:50.525Z,-0.05
2017-03-14T12:07:50.813Z,0.08
2017-03-14T12:08:50.502Z,0.64
2017-03-14T12:09:50.485Z,0.81
2017-03-14T12:10:50.450Z,0.78
2017-03-14T12:11:50.440Z,0.78
2017-03-14T12:12:50.435Z,1.13
2017-03-14T12:13:50.713Z,0.67
2017-03-14T12:14:50.692Z,0.08
2017-03-14T12:15:50.377Z,0.7
2017-03-14T12:16:50.356Z,0.74
2017-03-14T12:17:50.656Z,1
2017-03-14T12:18:50.621Z,0.89
2017-03-14T12:19:50.309Z,0.31
2017-03-14T12:20:50.600Z,0.38
2017-03-14T12:21:50.277Z,0.95
2017-03-14T12:22:50.263Z,0.77
2017-03-14T12:23:50.234Z,0.84
2017-03-14T12:24:50.528Z,0.9
2017-03-14T12:25:50.500Z,1.13
2017-03-14T12:26:50.485Z,1.38
2017-03-14T12:27:50.474Z,0.98
2017-03-14T12:28:50.437Z,1.18
2017-03-14T12:29:50.420Z,1.32
2017-03-14T12:30:50.423Z,1.35
2017-03-14T12:31:50.383Z,1.24
2017-03-14T12:32:50.382Z,0.81
2017-03-14T12:33:50.354Z,1.07
2017-03-14T12:34:50.350Z,0.95
2017-03-14T12:35:50.320Z,0.59
2017-03-14T12:36:50.317Z,0.37
2017-03-14T12:37:50.291Z,0.96
2017-03-14T12:38:50.283Z,0.78
2017-03-14T12:39:50.266Z,1.07
2017-03-14T12:40:50.234Z,0.8
2017-03-14T12:41:49.915Z,0.72
2017-03-14T12:42:49.603Z,1.21
2017-03-14T12:43:50.214Z,1.34
2017-03-14T12:44:50.177Z,0.38
2017-03-14T12:45:49.856Z,0.23
2017-03-14T12:46:50.145Z,0.34
2017-03-14T12:47:50.112Z,0.96
2017-03-14T12:48:49.801Z,1.21
2017-03-14T12:49:50.101Z,1.79
2017-03-14T12:50:49.769Z,1.9
2017-03-14T12:51:50.059Z,2.01
2017-03-14T12:52:50.044Z,2.04
2017-03-14T12:53:50.035Z,1.86
2017-03-14T12:54:50.010Z,1.63
2017-03-14T12:55:49.986Z,1.98
2017-03-14T12:56:49.668Z,2.3
2017-03-14T12:57:49.962Z,2.4
2017-03-14T12:58:49.931Z,2.5
2017-03-14T12:59:49.939Z,1.98
2017-03-14T13:00:49.923Z,1.65
2017-03-14T13:01:49.895Z,1.28
2017-03-14T13:02:49.907Z,0.44
2017-03-14T13:03:49.858Z,0.62
2017-03-14T13:04:49.540Z,1.04
2017-03-14T13:05:49.810Z,1.28
2017-03-14T13:06:49.825Z,1.67